createdAt,value
2019-02-04T00:01:11.472Z,22.60
2019-02-04T00:03:44.590Z,22.40
2019-02-04T00:06:19.036Z,22.20
2019-02-04T00:08:52.128Z,22.00
2019-02-04T00:11:32.020Z,21.90
2019-02-04T00:14:05.161Z,21.70
2019-02-04T00:16:41.384Z,21.50
2019-02-04T00:19:14.828Z,21.30
2019-02-04T00:21:47.870Z,21.30
2019-02-04T00:24:20.971Z,21.20
2019-02-04T00:27:00.948Z,21.10
2019-02-04T00:29:33.603Z,21.00
2019-02-04T00:32:06.376Z,20.80
2019-02-04T00:34:39.002Z,20.90
2019-02-04T00:37:11.847Z,20.80
2019-02-04T00:39:44.658Z,20.70
2019-02-04T00:42:24.312Z,20.50
2019-02-04T00:44:57.017Z,20.40
2019-02-04T00:47:36.789Z,20.40
2019-02-04T00:50:11.491Z,20.20
2019-02-04T00:52:46.516Z,20.00
2019-02-04T00:55:21.346Z,19.80
2019-02-04T00:57:54.440Z,19.90
2019-02-04T01:00:31.168Z,19.90
2019-02-04T01:03:17.373Z,20.00
2019-02-04T01:05:50.379Z,20.10
2019-02-04T01:08:31.345Z,20.10
2019-02-04T01:11:08.293Z,19.90
2019-02-04T01:13:41.125Z,19.80
2019-02-04T01:16:17.841Z,19.70
2019-02-04T01:18:50.591Z,19.60
2019-02-04T01:21:23.439Z,19.60
2019-02-04T01:23:56.166Z,19.70
2019-02-04T01:26:28.888Z,19.80
2019-02-04T01:29:08.603Z,19.90
2019-02-04T01:31:47.267Z,19.80
2019-02-04T01:34:21.289Z,19.90
2019-02-04T01:36:54.125Z,19.90
2019-02-04T01:39:27.035Z,19.80
2019-02-04T01:41:59.656Z,19.60
2019-02-04T01:44:38.754Z,19.50
2019-02-04T01:47:14.779Z,19.30
2019-02-04T01:49:46.310Z,19.40
2019-02-04T01:52:19.215Z,19.40
2019-02-04T01:54:58.591Z,19.40
2019-02-04T01:57:32.668Z,19.60
2019-02-04T02:00:13.783Z,19.50
2019-02-04T02:02:47.122Z,19.40
2019-02-04T02:05:22.423Z,19.50
2019-02-04T02:08:01.712Z,19.40
2019-02-04T02:10:34.523Z,19.30
2019-02-04T02:13:07.214Z,19.30
2019-02-04T02:15:40.002Z,19.40
2019-02-04T02:18:12.714Z,19.30
2019-02-04T02:20:51.863Z,19.40
2019-02-04T02:23:28.456Z,19.20
2019-02-04T02:26:08.197Z,19.20
2019-02-04T02:28:40.960Z,19.10
2019-02-04T02:31:22.505Z,19.10
2019-02-04T02:33:57.491Z,19.00
2019-02-04T02:36:32.806Z,19.00
2019-02-04T02:39:05.773Z,19.00
2019-02-04T02:41:38.642Z,18.90
2019-02-04T02:44:11.810Z,18.90
2019-02-04T02:46:46.008Z,19.00
2019-02-04T02:49:19.306Z,19.30
2019-02-04T02:51:52.115Z,19.60
2019-02-04T02:54:24.715Z,19.50
2019-02-04T02:56:57.484Z,19.40
2019-02-04T02:59:30.092Z,19.50
2019-02-04T03:02:04.483Z,19.40
2019-02-04T03:04:37.071Z,19.30
2019-02-04T03:07:10.319Z,19.50
2019-02-04T03:09:43.005Z,19.60
2019-02-04T03:12:22.612Z,19.50
2019-02-04T03:14:55.284Z,19.40
2019-02-04T03:17:28.183Z,19.70
2019-02-04T03:20:01.141Z,19.40
2019-02-04T03:22:34.302Z,19.30
2019-02-04T03:25:10.400Z,19.40
2019-02-04T03:27:43.497Z,19.20
2019-02-04T03:30:19.914Z,19.20
2019-02-04T03:32:59.118Z,19.20
2019-02-04T03:35:31.805Z,19.10
2019-02-04T03:38:05.795Z,19.10
2019-02-04T03:40:38.980Z,19.10
2019-02-04T03:43:18.188Z,19.10
2019-02-04T03:45:51.819Z,18.90
2019-02-04T03:48:25.019Z,18.80
2019-02-04T03:50:57.663Z,19.00
2019-02-04T03:53:30.337Z,18.80
2019-02-04T03:56:03.032Z,18.70
2019-02-04T03:58:36.158Z,18.70
2019-02-04T04:01:08.951Z,18.70
2019-02-04T04:03:48.479Z,18.70
2019-02-04T04:06:22.160Z,18.60
2019-02-04T04:08:56.612Z,18.50
2019-02-04T04:11:29.766Z,18.50
2019-02-04T04:14:02.455Z,18.70
2019-02-04T04:16:35.404Z,18.50
2019-02-04T04:19:08.143Z,18.40
2019-02-04T04:21:41.345Z,18.40
2019-02-04T04:24:14.070Z,18.50
2019-02-04T04:26:46.749Z,18.40
2019-02-04T04:29:25.709Z,18.30
2019-02-04T04:31:58.986Z,18.30
2019-02-04T04:34:31.938Z,18.30
2019-02-04T04:37:05.173Z,18.30
2019-02-04T04:39:38.255Z,18.30
2019-02-04T04:42:11.434Z,18.40
2019-02-04T04:44:47.805Z,18.30
2019-02-04T04:47:21.449Z,18.50
2019-02-04T04:50:01.689Z,18.60
2019-02-04T04:52:34.701Z,18.60
2019-02-04T04:55:16.046Z,18.60
2019-02-04T04:57:49.217Z,18.60
2019-02-04T05:00:24.205Z,18.60
2019-02-04T05:02:57.250Z,18.60
2019-02-04T05:05:37.302Z,18.60
2019-02-04T05:08:18.171Z,18.60
2019-02-04T05:10:51.629Z,18.50
2019-02-04T05:13:24.275Z,18.50
2019-02-04T05:15:56.953Z,18.60
2019-02-04T05:18:37.814Z,18.50
2019-02-04T05:21:04.365Z,18.60
2019-02-04T05:23:37.557Z,18.50
2019-02-04T05:26:17.713Z,18.40
2019-02-04T05:28:50.949Z,18.40
2019-02-04T05:31:24.339Z,18.50
2019-02-04T05:33:57.451Z,18.40
2019-02-04T05:36:30.597Z,18.40
2019-02-04T05:39:04.216Z,18.40
2019-02-04T05:41:37.280Z,18.30
2019-02-04T05:44:09.921Z,18.20
2019-02-04T05:46:52.057Z,18.20
2019-02-04T05:49:24.344Z,18.20
2019-02-04T05:51:57.204Z,18.20
2019-02-04T05:54:30.103Z,18.10
2019-02-04T05:57:03.514Z,18.10
2019-02-04T05:59:37.346Z,18.10
2019-02-04T06:02:10.562Z,18.00
2019-02-04T06:04:44.582Z,18.00
2019-02-04T06:07:17.958Z,18.00
2019-02-04T06:09:51.611Z,18.00
2019-02-04T06:12:25.878Z,17.90
2019-02-04T06:14:59.386Z,18.00
2019-02-04T06:17:33.163Z,17.90
2019-02-04T06:20:07.925Z,17.80
2019-02-04T06:22:47.394Z,17.80
2019-02-04T06:25:20.356Z,17.80
2019-02-04T06:27:53.740Z,17.70
2019-02-04T06:30:26.728Z,17.80
2019-02-04T06:32:59.871Z,17.60
2019-02-04T06:35:33.306Z,17.70
2019-02-04T06:38:06.711Z,17.70
2019-02-04T06:40:39.340Z,17.50
2019-02-04T06:43:12.336Z,17.50
2019-02-04T06:45:46.048Z,17.40
2019-02-04T06:48:26.177Z,17.50
2019-02-04T06:50:59.535Z,17.50
2019-02-04T06:53:32.605Z,17.40
2019-02-04T06:56:05.985Z,17.50
2019-02-04T06:58:38.931Z,17.50
2019-02-04T07:01:11.975Z,17.40
2019-02-04T07:03:45.018Z,17.40
2019-02-04T07:06:18.046Z,17.30
2019-02-04T07:08:57.554Z,17.20
2019-02-04T07:11:40.422Z,17.30
2019-02-04T07:14:20.558Z,17.30
2019-02-04T07:16:54.574Z,17.40
2019-02-04T07:19:27.297Z,17.20
2019-02-04T07:22:00.531Z,17.40
2019-02-04T07:24:42.852Z,17.30
2019-02-04T07:27:08.640Z,17.20
2019-02-04T07:29:41.641Z,17.10
2019-02-04T07:32:14.431Z,17.10
2019-02-04T07:34:47.189Z,17.10
2019-02-04T07:37:20.294Z,17.10
2019-02-04T07:39:54.362Z,17.00
2019-02-04T07:42:27.587Z,17.00
2019-02-04T07:45:00.547Z,17.00
2019-02-04T07:47:33.698Z,16.90
2019-02-04T07:50:06.788Z,16.90
2019-02-04T07:52:39.946Z,16.90
2019-02-04T07:55:13.131Z,16.90
2019-02-04T07:57:46.231Z,16.80
2019-02-04T08:00:31.838Z,16.90
2019-02-04T08:03:04.798Z,16.80
2019-02-04T08:05:37.874Z,16.80
2019-02-04T08:08:11.066Z,16.80
2019-02-04T08:10:44.228Z,16.80
2019-02-04T08:13:17.530Z,16.80
2019-02-04T08:15:50.624Z,16.90
2019-02-04T08:18:23.676Z,16.90
2019-02-04T08:21:03.382Z,17.10
2019-02-04T08:23:36.432Z,17.10
2019-02-04T08:26:10.169Z,17.30
2019-02-04T08:28:44.223Z,17.30
2019-02-04T08:31:17.652Z,17.20
2019-02-04T08:33:51.735Z,17.30
2019-02-04T08:36:25.362Z,17.40
2019-02-04T08:38:59.510Z,17.50
2019-02-04T08:41:39.369Z,17.60
2019-02-04T08:44:12.590Z,17.60
2019-02-04T08:46:52.461Z,17.60
2019-02-04T08:49:25.190Z,17.70
2019-02-04T08:52:05.038Z,17.60
2019-02-04T08:54:38.094Z,17.70
2019-02-04T08:57:11.472Z,17.90
2019-02-04T08:59:44.629Z,17.90
2019-02-04T09:02:17.892Z,17.90
2019-02-04T09:04:51.330Z,17.90
2019-02-04T09:07:24.152Z,17.90
2019-02-04T09:09:58.287Z,18.00
2019-02-04T09:12:31.431Z,18.10
2019-02-04T09:15:05.614Z,18.00
2019-02-04T09:17:44.970Z,17.90
2019-02-04T09:20:19.385Z,17.90
2019-02-04T09:22:52.311Z,17.80
2019-02-04T09:25:27.293Z,17.70
2019-02-04T09:28:07.363Z,17.60
2019-02-04T09:30:41.900Z,17.60
2019-02-04T09:33:14.973Z,17.60
2019-02-04T09:35:50.561Z,17.80
2019-02-04T09:38:31.291Z,17.70
2019-02-04T09:41:04.209Z,17.70
2019-02-04T09:43:39.759Z,17.60
2019-02-04T09:46:12.803Z,17.70
2019-02-04T09:48:45.862Z,17.90
2019-02-04T09:51:18.928Z,17.90
2019-02-04T09:53:52.066Z,18.00
2019-02-04T09:56:25.592Z,18.20
2019-02-04T09:59:05.544Z,18.20
2019-02-04T10:01:38.579Z,18.10
2019-02-04T10:04:11.696Z,18.00
2019-02-04T10:06:44.963Z,18.00
2019-02-04T10:09:18.358Z,18.00
2019-02-04T10:11:51.495Z,17.90
2019-02-04T10:14:24.158Z,17.90
2019-02-04T10:16:57.946Z,18.10
2019-02-04T10:19:32.503Z,18.10
2019-02-04T10:22:05.590Z,18.00
2019-02-04T10:24:38.705Z,17.90
2019-02-04T10:27:11.863Z,18.00
2019-02-04T10:29:53.775Z,18.00
2019-02-04T10:32:26.765Z,17.90
2019-02-04T10:34:59.844Z,17.90
2019-02-04T10:37:32.858Z,17.90
2019-02-04T10:40:05.833Z,17.90
2019-02-04T10:42:39.524Z,17.70
2019-02-04T10:45:12.995Z,17.80
2019-02-04T10:47:46.898Z,17.80
2019-02-04T10:50:25.420Z,17.90
2019-02-04T10:52:58.520Z,17.80
2019-02-04T10:55:31.915Z,17.70
2019-02-04T10:58:04.994Z,17.70
2019-02-04T11:00:45.043Z,17.90
2019-02-04T11:03:19.988Z,17.70
2019-02-04T11:05:51.800Z,17.70
2019-02-04T11:08:24.472Z,17.40
2019-02-04T11:10:57.262Z,17.30
2019-02-04T11:13:30.232Z,17.20
2019-02-04T11:16:10.791Z,17.20
2019-02-04T11:18:45.207Z,17.30
2019-02-04T11:21:19.687Z,17.20
2019-02-04T11:23:56.772Z,17.10
2019-02-04T11:26:29.515Z,17.20
2019-02-04T11:29:02.543Z,17.00
2019-02-04T11:31:42.183Z,16.90
2019-02-04T11:34:14.859Z,16.90
2019-02-04T11:36:47.578Z,17.00
2019-02-04T11:39:20.225Z,16.90
2019-02-04T11:41:53.014Z,17.00
2019-02-04T11:44:25.964Z,16.90
2019-02-04T11:46:58.681Z,17.00
2019-02-04T11:49:31.345Z,17.00
2019-02-04T11:52:04.066Z,16.90
2019-02-04T11:54:36.726Z,16.80
2019-02-04T11:57:09.439Z,16.80
2019-02-04T11:59:42.070Z,16.90
2019-02-04T12:02:14.823Z,16.60
2019-02-04T12:04:47.466Z,16.50
2019-02-04T12:07:20.607Z,16.60
2019-02-04T12:09:53.563Z,16.50
2019-02-04T12:12:33.022Z,16.70
2019-02-04T12:15:06.973Z,16.70
2019-02-04T12:17:40.343Z,16.60
2019-02-04T12:20:20.024Z,16.60
2019-02-04T12:22:52.771Z,16.70
2019-02-04T12:25:26.829Z,16.70
2019-02-04T12:28:02.955Z,16.80
2019-02-04T12:30:39.734Z,16.80
2019-02-04T12:33:21.043Z,16.80
2019-02-04T12:35:53.999Z,16.80
2019-02-04T12:38:26.786Z,17.00
2019-02-04T12:40:59.481Z,17.00
2019-02-04T12:43:32.132Z,16.90
2019-02-04T12:46:04.871Z,17.10
2019-02-04T12:48:38.160Z,17.10
2019-02-04T12:51:11.932Z,17.20
2019-02-04T12:53:51.470Z,17.30
2019-02-04T12:56:24.222Z,17.30
2019-02-04T12:58:57.799Z,17.30
2019-02-04T13:01:30.431Z,17.20
2019-02-04T13:04:03.369Z,17.20
2019-02-04T13:06:36.587Z,17.30
2019-02-04T13:09:18.705Z,17.20
2019-02-04T13:11:51.906Z,17.10
2019-02-04T13:14:30.819Z,17.00
2019-02-04T13:17:05.542Z,16.90
2019-02-04T13:19:40.119Z,16.80
2019-02-04T13:22:13.000Z,16.80
2019-02-04T13:24:45.799Z,16.80
2019-02-04T13:27:19.293Z,16.80
2019-02-04T13:29:52.521Z,16.70
2019-02-04T13:32:31.614Z,16.90
2019-02-04T13:35:04.396Z,17.10
2019-02-04T13:37:38.619Z,17.00
2019-02-04T13:40:15.614Z,17.20
2019-02-04T13:42:56.380Z,17.40
2019-02-04T13:45:37.308Z,17.30
2019-02-04T13:48:13.833Z,17.50
2019-02-04T13:50:53.936Z,17.90
2019-02-04T13:53:27.090Z,18.30
2019-02-04T13:56:14.929Z,18.50
2019-02-04T13:58:47.662Z,18.90
2019-02-04T14:01:26.922Z,19.20
2019-02-04T14:04:00.389Z,19.60
2019-02-04T14:06:34.199Z,19.80
2019-02-04T14:09:22.244Z,20.10
2019-02-04T14:11:57.096Z,20.10
2019-02-04T14:14:29.791Z,20.20
2019-02-04T14:17:05.495Z,20.30
2019-02-04T14:19:39.380Z,20.40
2019-02-04T14:22:13.811Z,20.50
2019-02-04T14:24:46.675Z,20.60
2019-02-04T14:27:19.479Z,20.40
2019-02-04T14:29:52.788Z,20.60
2019-02-04T14:32:32.797Z,20.70
2019-02-04T14:35:06.959Z,21.30
2019-02-04T14:37:46.946Z,21.60
2019-02-04T14:40:21.701Z,21.50
2019-02-04T14:43:06.588Z,21.20
2019-02-04T15:47:30.136Z,31.30
2019-02-04T15:50:38.139Z,31.50
2019-02-04T15:53:11.188Z,32.90
2019-02-04T15:55:43.891Z,33.60
2019-02-04T15:58:30.958Z,33.40
2019-02-04T16:01:04.889Z,33.80
2019-02-04T16:03:44.834Z,31.60
2019-02-04T16:06:17.978Z,32.90
2019-02-04T16:08:52.495Z,32.00
2019-02-04T16:11:26.059Z,29.30
2019-02-04T16:14:06.418Z,27.40
2019-02-04T16:16:39.202Z,27.00
2019-02-04T16:19:14.653Z,26.80
2019-02-04T16:21:47.628Z,26.60
2019-02-04T16:24:25.160Z,26.20
2019-02-04T16:26:59.178Z,25.90
2019-02-04T16:29:39.401Z,25.90
2019-02-04T16:32:13.196Z,26.20
2019-02-04T16:34:52.930Z,25.90
2019-02-04T16:37:26.097Z,25.90
2019-02-04T16:40:10.230Z,25.90
2019-02-04T16:42:48.286Z,25.70
2019-02-04T16:45:22.738Z,25.50
2019-02-04T16:47:56.412Z,25.70
2019-02-04T16:50:31.184Z,25.80
2019-02-04T16:53:10.655Z,25.70
2019-02-04T16:55:42.515Z,25.60
2019-02-04T16:58:16.007Z,25.90
2019-02-04T17:00:55.271Z,26.20
2019-02-04T17:03:29.761Z,26.10
2019-02-04T17:13:14.077Z,26.30
2019-02-04T17:15:46.824Z,25.70
2019-02-04T17:18:19.601Z,26.00
2019-02-04T17:20:52.328Z,26.50
2019-02-04T17:23:31.986Z,26.50
2019-02-04T17:26:05.494Z,26.70
2019-02-04T17:28:38.812Z,26.80
2019-02-04T17:31:12.766Z,26.90
2019-02-04T17:33:47.295Z,27.00
2019-02-04T17:36:20.016Z,27.00
2019-02-04T17:38:53.500Z,26.70
2019-02-04T17:41:26.977Z,26.30
2019-02-04T17:44:00.778Z,25.80
2019-02-04T17:46:33.663Z,25.60
2019-02-04T17:49:14.336Z,25.50
2019-02-04T17:51:48.581Z,25.50
2019-02-04T17:54:28.241Z,25.50
2019-02-04T17:57:01.000Z,25.20
2019-02-04T17:59:35.058Z,25.20
2019-02-04T18:02:12.055Z,25.10
2019-02-04T18:04:46.222Z,25.30
2019-02-04T18:07:21.717Z,25.60
2019-02-04T18:09:54.646Z,26.40
2019-02-04T18:12:28.006Z,26.80
2019-02-04T18:15:02.927Z,26.90
2019-02-04T18:17:38.021Z,26.90
2019-02-04T18:20:11.084Z,27.00
2019-02-04T18:22:43.926Z,26.70
2019-02-04T18:25:24.043Z,26.40
2019-02-04T18:27:56.707Z,26.50
2019-02-04T18:30:37.009Z,26.50
2019-02-04T18:33:09.711Z,27.00
2019-02-04T18:35:50.035Z,27.40
2019-02-04T18:38:23.942Z,27.40
2019-02-04T18:41:05.220Z,27.50
2019-02-04T18:43:38.175Z,27.70
2019-02-04T18:46:11.319Z,28.30
2019-02-04T18:48:46.045Z,28.40
2019-02-04T18:51:19.150Z,28.40
2019-02-04T18:53:57.711Z,28.70
2019-02-04T18:56:27.357Z,28.60
2019-02-04T18:59:01.818Z,28.30
2019-02-04T19:01:46.522Z,28.30
2019-02-04T19:04:19.420Z,28.70
2019-02-04T19:07:02.036Z,28.50
2019-02-04T19:09:35.639Z,28.60
2019-02-04T19:12:15.066Z,28.70
2019-02-04T19:14:47.880Z,29.10
2019-02-04T19:17:20.738Z,29.00
2019-02-04T19:19:53.439Z,29.30
2019-02-04T19:22:26.439Z,28.80
2019-02-04T19:24:59.886Z,29.00
2019-02-04T19:27:40.281Z,29.20
2019-02-04T19:30:35.024Z,29.00
2019-02-04T19:33:15.029Z,29.10
2019-02-04T19:35:48.799Z,28.90
2019-02-04T19:38:22.721Z,29.50
2019-02-04T19:40:57.716Z,30.00
2019-02-04T19:43:31.519Z,31.10
2019-02-04T19:46:04.774Z,34.80
2019-02-04T19:48:37.489Z,37.20
2019-02-04T19:51:11.701Z,38.30
2019-02-04T19:53:45.076Z,39.20
2019-02-04T19:56:21.316Z,39.30
2019-02-04T19:59:01.360Z,40.10
2019-02-04T20:01:35.931Z,41.20
2019-02-04T20:04:09.047Z,42.50
2019-02-04T20:06:42.194Z,42.00
2019-02-04T20:09:22.433Z,41.50
2019-02-04T20:11:55.668Z,40.80
2019-02-04T20:14:29.868Z,41.00
2019-02-04T20:17:02.521Z,40.60
2019-02-04T20:19:36.754Z,41.10
2019-02-04T20:22:11.830Z,41.40
2019-02-04T20:24:45.078Z,41.60
2019-02-04T20:27:18.121Z,38.50
2019-02-04T20:29:50.934Z,37.80
2019-02-04T20:32:33.091Z,35.80
2019-02-04T20:35:16.999Z,35.90
2019-02-04T20:37:49.806Z,37.60
2019-02-04T20:40:31.798Z,34.70
2019-02-04T20:43:05.356Z,33.70
2019-02-04T20:45:45.323Z,35.90
2019-02-04T20:48:18.680Z,36.00
2019-02-04T20:51:00.254Z,37.30
2019-02-04T20:53:33.635Z,38.90
2019-02-04T20:56:06.580Z,39.20
2019-02-04T20:58:39.273Z,38.90
2019-02-04T21:01:23.220Z,39.10
2019-02-04T21:03:57.641Z,38.30
2019-02-04T21:06:37.716Z,39.10
2019-02-04T21:09:16.479Z,37.30
2019-02-04T21:11:49.495Z,37.80
2019-02-04T21:14:28.588Z,37.30
2019-02-04T21:17:04.904Z,37.50
2019-02-04T21:19:46.175Z,37.40
2019-02-04T21:22:19.120Z,37.30
2019-02-04T21:24:56.423Z,38.20
2019-02-04T21:27:25.896Z,38.10
2019-02-04T21:30:04.134Z,37.80
2019-02-04T21:32:37.097Z,36.80
2019-02-04T21:35:11.943Z,34.70
2019-02-04T21:37:55.197Z,33.50
2019-02-04T21:40:29.630Z,32.60
2019-02-04T21:43:09.135Z,31.70
2019-02-04T21:45:42.047Z,31.00
2019-02-04T21:48:20.960Z,30.30
2019-02-04T21:50:54.010Z,30.20
2019-02-04T21:53:54.397Z,30.00
2019-02-04T21:56:27.514Z,29.90
2019-02-04T21:59:00.375Z,29.70
2019-02-04T22:01:33.373Z,29.30
2019-02-04T22:04:08.229Z,28.80
2019-02-04T22:06:41.059Z,28.90
2019-02-04T22:09:13.883Z,29.00
2019-02-04T22:11:46.710Z,29.10
2019-02-04T22:14:21.347Z,28.50
2019-02-04T22:16:54.203Z,28.20
2019-02-04T22:19:27.092Z,28.10
2019-02-04T22:21:59.771Z,28.10
2019-02-04T22:24:39.249Z,27.80
2019-02-04T22:27:12.308Z,27.80
2019-02-04T22:29:46.340Z,27.60
2019-02-04T22:32:19.740Z,27.50
2019-02-04T22:34:52.787Z,27.30
2019-02-04T22:37:26.993Z,27.20
2019-02-04T22:40:04.410Z,27.10
2019-02-04T22:42:37.350Z,26.90
2019-02-04T22:45:11.852Z,26.70
2019-02-04T22:47:44.597Z,26.60
2019-02-04T22:50:33.917Z,26.30
2019-02-04T22:53:12.582Z,26.20
2019-02-04T22:55:45.380Z,26.30
2019-02-04T22:58:20.779Z,26.40
2019-02-04T23:01:25.376Z,26.80
2019-02-04T23:03:57.998Z,26.90
2019-02-04T23:06:37.292Z,27.50
2019-02-04T23:09:11.522Z,27.90
2019-02-04T23:11:45.471Z,28.10
2019-02-04T23:14:18.246Z,28.10
2019-02-04T23:16:51.057Z,28.10
2019-02-04T23:19:24.231Z,28.00
2019-02-04T23:21:57.109Z,27.70
2019-02-04T23:24:29.888Z,27.60
2019-02-04T23:27:04.453Z,27.30
2019-02-04T23:29:37.283Z,26.90
2019-02-04T23:32:10.020Z,26.60
2019-02-04T23:34:42.790Z,26.30
2019-02-04T23:37:16.657Z,26.00
2019-02-04T23:39:49.316Z,25.70
2019-02-04T23:42:28.515Z,25.40
2019-02-04T23:45:01.315Z,25.00
2019-02-04T23:47:34.098Z,24.60
2019-02-04T23:50:07.519Z,24.30
2019-02-04T23:52:54.001Z,23.90
2019-02-04T23:55:33.184Z,23.60
2019-02-04T23:58:06.016Z,23.30
